Platteville, WI (53818)

8:01 AM CDT on April 28, 2017 (GMT -0500)
UW-Platteville Campus | | Change Station

Elev 1000 ft 42.73 °N, 90.49 °W | Updated 4 seconds ago

Clear
Clear
36.3 °F
Feels Like 33 °F
N
4.0
Wind Variable Wind from NW
Gusts 8.0 mph

Today
High -- | Low -- °F
--% Chance of Precip.
Yesterday
High -- | Low -- °F
Precip. -- in
Pressure 29.92 in
Visibility 10.0 miles
Clouds Clear
Windchill 33 °F
Dew Point 30 °F
Humidity 78%
Rainfall 0.00 in
Snow Depth Not available.
6:00 AM 7:59 PM
Waxing Crescent, 6% visible
METAR KPVB 281255Z AUTO 03003KT 10SM CLR 02/00 A2992 RMK AO1 T00170001
Pressure 29.92 in
Visibility 10.0 miles
Clouds Clear
Windchill 33 °F
Dew Point 30 °F
Humidity 78%
Rainfall 0.00 in
Snow Depth Not available.
6:00 AM 7:59 PM
Waxing Crescent, 6% visible
METAR KPVB 281255Z AUTO 03003KT 10SM CLR 02/00 A2992 RMK AO1 T00170001

Get Severe Weather Alerts

Thanks for signing up!

Be on the lookout for a verification email in your inbox.

You'll start receiving the daily forecast at 8 AM.

×

10-Day Weather Forecast

Almanac

Astronomy

Apr. 28, 2017 Rise Set
Actual Time
Civil Twilight
Nautical Twilight
Astronomical Twilight
Moon
Length of Visible Light
Length of Day
Tomorrow will be .
, % of the Moon is Illuminated

Today's Extremes

State Highs State Lows

Community

WunderPhotos

WunderBlog® & News

Nearby

Air Quality

  Air Quality AQ Index Pollutant
Not available.

Snow Depth

Station Depth Elevation

Earthquake Activity

City Distance Mag. Time & Date
Minimum magnitude displayed is 2.5.

Coastal Water Temperatures

Place Temperature

Stations

Nearby Weather Stations

Station Location Temp. Windchill Dew Point Humidity Wind Precip. Elev Updated Type
                   

Watches & Warnings

There are currently no watches in effect.